Hundvaag 1 weather for Sep 2010
Month no. 279
Obs.
Da.
Temp. Dew Point Precip. Wind
Speed
Wind gusts Cloud cover Press. Humidity Wind dir. Sunny OPT
01.09.2010 12,9 10,8 1,0 5,6 5,6 1 1020,9 87,0 315,0   67,5 %
02.09.2010 11,3 9,1 0,0 0,0 0,0 10 1022,9 86,0 112,5 1 90,0 %
03.09.2010 9,8 7,4 0,0 0,0 0,0 9 1022,9 85,0 180,0 1 85,0 %
04.09.2010 8,6 5,3 0,0 0,0 0,0 10 1023,2 80,0 157,5 1 87,5 %
05.09.2010 8,7 8,2 0,0 0,0 0,0 10 1026,6 97,0 202,5 1 87,5 %
06.09.2010 10,6 10,3 0,0 0,0 0,0 10 1026,0 98,0 180,0 1 90,0 %
07.09.2010 14,2 7,9 0,0 0,0 0,0 1 1019,2 66,0 225,0 1 70,0 %
08.09.2010 14,2 7,0 0,0 0,0 0,0 8 1015,8 62,0 180,0 1 87,5 %
09.09.2010 14,4 7,9 0,0 0,0 0,0 3 1015,5 65,0 202,5 1 75,0 %
10.09.2010 14,4 8,3 0,0 0,0 0,0 8 1015,5 65,0 202,5 1 87,5 %
11.09.2010 14,4 10,6 0,1 0,0 0,0 0 1015,5 65,0 202,5   67,5 %
12.09.2010 14,4 14,2 25,5 0,0 0,0 0 1015,5 65,0 202,5   47,5 %
13.09.2010 14,4 10,6 2,6 0,0 0,0 5 1015,5 65,0 202,5 1 80,0 %
14.09.2010 16,3 15,8 13,0 0,0 0,0 1 999,5 97,0 315,0 1 62,5 %
15.09.2010 11,5 10,9 8,3 0,0 0,0 3 989,7 96,0 112,5 1 67,5 %
16.09.2010 13,9 13,6 7,5 0,0 0,0 0 988,7 98,0 275,0   62,5 %
17.09.2010 12,3 13,3 13,5 6,7 0,0 7 999,7 82,0 288,0 1 70,0 %
18.09.2010 13,7 13,4 9,5 0,0 0,0 1 987,0 97,0 268,0   62,5 %
19.09.2010 11,8 13,3 8,5 3,5 0,0 3 1009,0 82,0 262,0 1 67,5 %
20.09.2010 9,8 7,0 7,0 1,2 1,9 1 1006,9 86,0 58,0   60,0 %
21.09.2010 10,8 6,8 15,0 4,1 7,4 7 1019,0 75,0 270,0 1 67,5 %
22.09.2010 11,8 7,2 0,0 3,2 11,1 0 1020,6 82,0     65,0 %
23.09.2010 13,3 11,3 1,0 3,7 3,7 0 1010,7 88,0 135,0   65,0 %
24.09.2010 15,8 15,4 12,5 0,0 0,0 1 999,5 98,0 67,5   62,5 %
25.09.2010 13,3 11,1 0,0 3,7 0,0 10 1010,7 88,0 135,0 1 90,0 %
26.09.2010 13,3 13,8 0,1 3,7 0,0 10 1010,7 88,0 135,0 1 90,0 %
27.09.2010 15,4 8,8 0,0 0,0 0,0 10 1019,2 65,0 247,5 1 95,0 %
28.09.2010 15,8 3,6 0,0 0,0 1,9 7 999,5 98,0 67,5 1 87,5 %
29.09.2010 6,5 2,9 0,0 0,0 0,0 10 1027,7 78,0 112,5 1 85,0 %
30.09.2010 9,5 3,9 0,0 3,7 3,7 9 1023,6 68,0 112,5 1 82,5 %
                       
Avrg/Sum 12,6 9,7 125,1 1,3 1,2 5,2 1012,6 81,7 187,1 21 75,5 %